Time;durP1;ratioP1;P1;durP2;ratioP2;P2;SDS_P1;SDS_P2;PMS_P1;PMS_P2;Temp;Humidity;BMP_temperature;BMP_pressure;BME280_temperature;BME280_humidity;BME280_pressure;Samples;Min_cycle;Max_cycle;Signal;HPM_P1;HPM_P2
2021/12/28 00:02:03;;;;;;;10.83;9.73;;;10.20;99.90;;;;;;961023;149;27377;-85
2021/12/28 00:04:29;;;;;;;11.97;8.77;;;10.20;99.90;;;;;;966357;148;27405;-85
2021/12/28 00:06:55;;;;;;;10.03;8.37;;;10.20;99.90;;;;;;965390;148;27313;-86
2021/12/28 00:09:22;;;;;;;9.07;8.03;;;10.20;99.90;;;;;;960843;146;27687;-85
2021/12/28 00:11:49;;;;;;;10.97;8.37;;;10.20;99.90;;;;;;958903;146;27329;-85
2021/12/28 00:14:15;;;;;;;10.37;8.67;;;10.20;99.90;;;;;;939898;149;27338;-85
2021/12/28 00:19:26;;;;;;;8.43;7.30;;;10.20;99.90;;;;;;964551;149;28865;-85
2021/12/28 00:21:53;;;;;;;7.97;7.03;;;10.20;99.90;;;;;;954289;149;27382;-84
2021/12/28 00:24:19;;;;;;;8.60;7.70;;;10.20;99.90;;;;;;950233;148;27385;-84
2021/12/28 00:26:46;;;;;;;8.13;7.33;;;10.20;99.90;;;;;;962624;149;27426;-83
2021/12/28 00:29:13;;;;;;;10.10;7.43;;;10.20;99.90;;;;;;965620;146;27335;-83
2021/12/28 00:31:39;;;;;;;8.37;7.50;;;10.30;99.90;;;;;;963481;149;27435;-84
2021/12/28 00:34:06;;;;;;;7.97;7.17;;;10.30;99.90;;;;;;969932;146;27249;-84
2021/12/28 00:36:32;;;;;;;8.73;7.57;;;10.30;99.90;;;;;;948711;149;27456;-84
2021/12/28 00:39:00;;;;;;;7.93;7.00;;;10.30;99.90;;;;;;955192;149;27286;-84
2021/12/28 00:41:26;;;;;;;7.27;6.57;;;10.30;99.90;;;;;;954673;149;27344;-84
2021/12/28 00:43:52;;;;;;;7.17;6.37;;;10.30;99.90;;;;;;953767;146;27322;-84
2021/12/28 00:46:19;;;;;;;7.27;6.57;;;10.30;99.90;;;;;;980296;146;27277;-84
2021/12/28 00:48:45;;;;;;;7.93;7.00;;;10.30;99.90;;;;;;968195;146;27391;-84
2021/12/28 00:51:12;;;;;;;9.27;7.53;;;10.30;99.90;;;;;;964507;149;27396;-84
2021/12/28 00:53:39;;;;;;;7.20;6.50;;;10.30;99.90;;;;;;965259;149;27356;-84
2021/12/28 00:56:05;;;;;;;7.43;6.53;;;10.30;99.90;;;;;;967850;146;27305;-83
2021/12/28 00:58:32;;;;;;;7.30;6.57;;;10.30;99.90;;;;;;962802;146;27282;-84
2021/12/28 01:01:01;;;;;;;7.67;6.60;;;10.30;99.90;;;;;;959174;146;27302;-83
2021/12/28 01:03:27;;;;;;;6.93;6.23;;;10.30;99.90;;;;;;955222;146;27277;-85
2021/12/28 01:05:54;;;;;;;7.10;6.40;;;10.30;99.90;;;;;;966439;146;27367;-84
2021/12/28 01:08:20;;;;;;;6.80;6.13;;;10.30;99.90;;;;;;965226;147;27295;-84
2021/12/28 01:10:47;;;;;;;6.93;6.23;;;10.30;99.90;;;;;;951747;149;27408;-84
2021/12/28 01:13:14;;;;;;;6.90;6.30;;;10.30;99.90;;;;;;941063;149;27267;-84
2021/12/28 01:15:40;;;;;;;6.90;6.20;;;10.30;99.90;;;;;;977098;146;27271;-83
2021/12/28 01:18:07;;;;;;;7.00;6.33;;;10.30;99.90;;;;;;972520;146;27310;-84
2021/12/28 01:20:33;;;;;;;6.93;5.93;;;10.30;99.90;;;;;;965581;146;27277;-84
2021/12/28 01:23:00;;;;;;;6.07;5.47;;;10.30;99.90;;;;;;966796;146;27389;-83
2021/12/28 01:25:27;;;;;;;7.43;5.73;;;10.30;99.90;;;;;;963126;146;27284;-84
2021/12/28 01:27:56;;;;;;;7.10;5.63;;;10.30;99.90;;;;;;976654;146;27296;-84
2021/12/28 01:30:22;;;;;;;6.63;6.03;;;10.30;99.90;;;;;;976548;145;27405;-84
2021/12/28 01:32:49;;;;;;;6.20;5.60;;;10.40;99.90;;;;;;973934;146;27310;-84
2021/12/28 01:35:16;;;;;;;8.00;5.53;;;10.40;99.90;;;;;;965277;149;27727;-84
2021/12/28 01:37:42;;;;;;;6.17;5.30;;;10.40;99.90;;;;;;961549;149;27377;-84
2021/12/28 01:40:09;;;;;;;6.13;5.37;;;10.40;99.90;;;;;;963392;149;27379;-84
2021/12/28 01:42:35;;;;;;;6.03;5.00;;;10.40;99.90;;;;;;959484;146;27277;-84
2021/12/28 01:45:02;;;;;;;5.47;4.83;;;10.40;99.90;;;;;;975482;146;27308;-84
2021/12/28 01:47:29;;;;;;;7.17;5.23;;;10.40;99.90;;;;;;967195;148;27241;-84
2021/12/28 01:49:55;;;;;;;7.03;5.53;;;10.40;99.90;;;;;;959976;146;27311;-83
2021/12/28 01:52:22;;;;;;;5.87;5.33;;;10.40;99.90;;;;;;950087;149;27353;-83
2021/12/28 01:54:48;;;;;;;5.60;5.10;;;10.40;99.90;;;;;;948295;149;27369;-84
2021/12/28 01:57:15;;;;;;;6.07;5.43;;;10.40;99.90;;;;;;970890;146;27247;-84
2021/12/28 01:59:44;;;;;;;6.27;5.57;;;10.50;99.90;;;;;;963514;149;27302;-83
2021/12/28 02:02:11;;;;;;;6.30;5.70;;;10.50;99.90;;;;;;960050;149;27239;-86
2021/12/28 02:04:37;;;;;;;7.33;5.77;;;10.50;99.90;;;;;;957211;149;27289;-84
2021/12/28 02:07:04;;;;;;;8.93;6.37;;;10.50;99.90;;;;;;958304;148;27308;-84
2021/12/28 02:09:31;;;;;;;5.93;5.33;;;10.40;99.90;;;;;;974329;146;27383;-84
2021/12/28 02:11:57;;;;;;;6.57;5.87;;;10.40;99.90;;;;;;965205;149;27383;-84
2021/12/28 02:14:25;;;;;;;5.63;5.13;;;10.50;99.90;;;;;;964755;149;27366;-84
2021/12/28 02:16:50;;;;;;;6.13;5.50;;;10.50;99.90;;;;;;964538;149;27404;-85
2021/12/28 02:19:18;;;;;;;6.80;4.60;;;10.50;99.90;;;;;;952751;149;27374;-84
2021/12/28 02:21:43;;;;;;;4.87;4.37;;;10.50;99.90;;;;;;943266;149;27331;-84
2021/12/28 02:24:10;;;;;;;7.13;5.07;;;10.50;99.90;;;;;;965356;146;27235;-84
2021/12/28 02:26:37;;;;;;;5.53;4.97;;;10.50;99.90;;;;;;966201;146;27451;-85
2021/12/28 02:29:03;;;;;;;6.57;4.47;;;10.50;99.90;;;;;;973762;146;27406;-84
2021/12/28 02:31:30;;;;;;;6.20;4.80;;;10.50;99.90;;;;;;963491;146;27375;-84
2021/12/28 02:33:56;;;;;;;7.30;5.30;;;10.50;99.90;;;;;;957884;145;27417;-84
2021/12/28 02:36:23;;;;;;;5.83;4.93;;;10.50;99.90;;;;;;958965;146;27355;-85
2021/12/28 02:38:50;;;;;;;5.53;4.97;;;10.50;99.90;;;;;;972621;146;27371;-84
2021/12/28 02:41:16;;;;;;;7.83;4.87;;;10.60;99.90;;;;;;954395;146;27311;-84
2021/12/28 02:43:43;;;;;;;5.40;4.60;;;10.60;99.90;;;;;;981205;146;27274;-84
2021/12/28 02:46:09;;;;;;;7.07;4.70;;;10.60;99.90;;;;;;967577;146;27397;-84
2021/12/28 02:48:37;;;;;;;4.73;4.27;;;10.60;99.90;;;;;;967152;145;27310;-84
2021/12/28 02:51:02;;;;;;;7.07;4.77;;;10.60;99.90;;;;;;960071;149;27385;-85
2021/12/28 02:53:32;;;;;;;8.40;5.27;;;10.60;99.90;;;;;;946626;149;27322;-84
2021/12/28 02:55:58;;;;;;;5.43;4.17;;;10.60;99.90;;;;;;949259;146;27346;-86
2021/12/28 02:58:25;;;;;;;5.77;4.70;;;10.60;99.90;;;;;;963847;146;27302;-85
2021/12/28 03:01:10;;;;;;;5.23;4.60;;;10.60;99.90;;;;;;965493;146;27249;-85
2021/12/28 03:03:37;;;;;;;6.53;4.27;;;10.60;99.90;;;;;;964309;146;27318;-85
2021/12/28 03:06:03;;;;;;;6.07;4.13;;;10.60;99.90;;;;;;962086;148;27258;-84
2021/12/28 03:08:30;;;;;;;6.87;4.60;;;10.60;99.90;;;;;;972223;146;27347;-84
2021/12/28 03:10:56;;;;;;;6.70;4.37;;;10.60;99.90;;;;;;974211;146;27331;-84
2021/12/28 03:13:26;;;;;;;6.77;4.10;;;10.60;99.90;;;;;;967161;148;27412;-84
2021/12/28 03:15:52;;;;;;;8.97;4.27;;;10.60;99.90;;;;;;962727;145;27275;-84
2021/12/28 03:18:22;;;;;;;8.07;4.60;;;10.60;99.90;;;;;;977686;146;27334;-84
2021/12/28 03:20:48;;;;;;;5.17;3.67;;;10.60;99.90;;;;;;946820;151;27332;-85
2021/12/28 03:23:15;;;;;;;4.83;4.00;;;10.70;99.90;;;;;;963036;146;27238;-83
2021/12/28 03:25:41;;;;;;;7.90;3.90;;;10.70;99.90;;;;;;955906;149;27341;-83
2021/12/28 03:28:08;;;;;;;6.07;4.30;;;10.70;99.90;;;;;;962382;146;27403;-84
2021/12/28 03:30:35;;;;;;;7.50;4.03;;;10.70;99.90;;;;;;961825;146;27397;-84
2021/12/28 03:33:01;;;;;;;7.53;3.97;;;10.80;99.90;;;;;;968968;145;27299;-84
2021/12/28 03:35:28;;;;;;;7.17;4.17;;;10.80;99.90;;;;;;970412;148;27261;-84
2021/12/28 03:37:54;;;;;;;6.87;4.50;;;10.80;99.90;;;;;;967695;148;27285;-84
2021/12/28 03:40:21;;;;;;;6.37;4.87;;;10.80;99.90;;;;;;978265;145;27322;-84
2021/12/28 03:42:50;;;;;;;8.20;4.00;;;10.80;99.90;;;;;;978279;145;27246;-84
2021/12/28 03:45:19;;;;;;;4.70;4.00;;;10.80;99.90;;;;;;975412;145;27448;-84
2021/12/28 03:47:46;;;;;;;6.37;3.90;;;10.90;99.90;;;;;;967587;148;27241;-84
2021/12/28 03:50:12;;;;;;;9.90;4.27;;;10.90;99.90;;;;;;968475;147;27317;-84
2021/12/28 03:52:39;;;;;;;6.53;4.17;;;10.90;99.90;;;;;;968894;145;27328;-81
2021/12/28 03:55:06;;;;;;;9.03;4.43;;;10.90;99.90;;;;;;964820;148;27300;-82
2021/12/28 03:57:32;;;;;;;5.87;4.27;;;10.90;99.90;;;;;;969085;145;27224;-81
2021/12/28 03:59:59;;;;;;;7.87;4.13;;;10.90;99.90;;;;;;964176;145;27304;-81
2021/12/28 04:02:25;;;;;;;7.90;4.50;;;10.90;99.90;;;;;;970687;145;27290;-81
2021/12/28 04:04:52;;;;;;;8.97;4.90;;;10.90;99.90;;;;;;953288;145;27314;-81
2021/12/28 04:07:20;;;;;;;8.43;4.67;;;10.90;99.90;;;;;;963366;148;27268;-82
2021/12/28 04:12:20;;;;;;;7.97;4.23;;;10.90;99.90;;;;;;966814;145;27424;-82
2021/12/28 04:14:47;;;;;;;8.00;4.80;;;11.00;99.90;;;;;;976171;142;27285;-81
2021/12/28 04:17:14;;;;;;;8.73;4.77;;;11.00;99.90;;;;;;950358;146;27319;-81
2021/12/28 04:19:40;;;;;;;7.23;4.73;;;11.00;99.90;;;;;;968545;148;27440;-81
2021/12/28 04:22:07;;;;;;;8.50;4.47;;;11.00;99.90;;;;;;977119;145;27231;-81
2021/12/28 04:24:33;;;;;;;9.60;5.03;;;11.00;99.90;;;;;;968666;148;27700;-81
2021/12/28 04:27:00;;;;;;;7.00;4.27;;;11.00;99.90;;;;;;970095;148;27434;-81
2021/12/28 04:29:26;;;;;;;6.23;4.37;;;11.00;99.90;;;;;;962611;148;27325;-81
2021/12/28 04:31:53;;;;;;;7.87;4.53;;;11.00;99.90;;;;;;960057;145;27426;-81
2021/12/28 04:34:20;;;;;;;8.87;4.73;;;11.00;99.90;;;;;;966077;148;27359;-81
2021/12/28 04:36:47;;;;;;;4.80;4.10;;;11.00;99.90;;;;;;963315;149;27369;-81
2021/12/28 04:39:15;;;;;;;5.83;3.57;;;11.00;99.90;;;;;;963233;146;27275;-81
2021/12/28 04:41:42;;;;;;;7.43;4.13;;;11.00;99.90;;;;;;962560;146;27304;-82
2021/12/28 04:44:12;;;;;;;7.17;3.67;;;11.00;99.90;;;;;;961928;149;27331;-82
2021/12/28 04:46:35;;;;;;;6.47;3.60;;;11.00;99.90;;;;;;963064;149;27303;-81
2021/12/28 04:49:02;;;;;;;4.97;3.40;;;11.00;99.90;;;;;;962898;148;27317;-81
2021/12/28 04:51:28;;;;;;;5.67;3.20;;;11.00;99.90;;;;;;972477;146;27381;-82
2021/12/28 04:53:55;;;;;;;5.47;3.30;;;11.00;99.90;;;;;;952592;148;27276;-81
2021/12/28 04:56:21;;;;;;;6.67;3.97;;;11.00;99.90;;;;;;974704;146;27308;-81
2021/12/28 04:58:48;;;;;;;5.77;3.10;;;11.00;99.90;;;;;;960275;146;27442;-82
2021/12/28 05:01:15;;;;;;;6.00;3.27;;;11.00;99.90;;;;;;962468;149;27395;-81
2021/12/28 05:03:41;;;;;;;6.10;3.27;;;11.00;99.90;;;;;;966785;146;27424;-81
2021/12/28 05:06:08;;;;;;;5.70;2.93;;;11.10;99.90;;;;;;974661;146;27304;-82
2021/12/28 05:08:34;;;;;;;4.60;2.73;;;11.10;99.90;;;;;;960756;147;27330;-81
2021/12/28 05:11:01;;;;;;;4.23;2.97;;;11.10;99.90;;;;;;974860;146;27265;-81
2021/12/28 05:13:27;;;;;;;5.83;2.73;;;11.10;99.90;;;;;;977954;146;27428;-82
2021/12/28 05:15:54;;;;;;;5.27;2.70;;;11.10;99.90;;;;;;976652;146;27249;-82
2021/12/28 05:18:21;;;;;;;3.50;2.57;;;11.10;99.90;;;;;;969913;145;27318;-81
2021/12/28 05:20:47;;;;;;;7.77;2.60;;;11.10;99.90;;;;;;976225;146;27296;-81
2021/12/28 05:23:14;;;;;;;5.37;2.23;;;11.10;99.90;;;;;;968386;148;27384;-82
2021/12/28 05:25:40;;;;;;;4.50;2.20;;;11.10;99.90;;;;;;976174;146;27288;-81
2021/12/28 05:28:07;;;;;;;7.60;2.50;;;11.10;99.90;;;;;;968352;147;27280;-82
2021/12/28 05:30:34;;;;;;;9.00;3.47;;;11.10;99.90;;;;;;960690;148;27263;-82
2021/12/28 05:33:00;;;;;;;4.27;3.07;;;11.10;99.90;;;;;;959610;146;27365;-81
2021/12/28 05:35:27;;;;;;;6.43;2.40;;;11.10;99.90;;;;;;966175;146;27312;-81
2021/12/28 05:37:53;;;;;;;4.97;2.43;;;11.10;99.90;;;;;;968152;146;27320;-81
2021/12/28 05:40:20;;;;;;;6.47;2.30;;;11.10;99.90;;;;;;945756;146;27377;-81
2021/12/28 05:42:47;;;;;;;4.20;3.03;;;11.10;99.90;;;;;;977064;146;27423;-81
2021/12/28 05:45:13;;;;;;;3.67;2.47;;;11.10;99.90;;;;;;963656;146;27291;-81
2021/12/28 05:47:40;;;;;;;7.37;2.27;;;11.10;99.90;;;;;;966907;146;27398;-81
2021/12/28 05:50:06;;;;;;;7.23;2.53;;;11.10;99.90;;;;;;961861;145;27387;-81
2021/12/28 05:52:33;;;;;;;5.37;2.60;;;11.10;99.90;;;;;;956334;149;27318;-81
2021/12/28 05:54:59;;;;;;;5.03;2.10;;;11.00;99.90;;;;;;963367;149;27287;-81
2021/12/28 05:57:26;;;;;;;5.67;2.47;;;11.00;99.90;;;;;;966490;145;27229;-81
2021/12/28 05:59:53;;;;;;;4.60;2.50;;;11.00;99.90;;;;;;959900;145;27291;-81
2021/12/28 06:02:19;;;;;;;6.23;2.90;;;11.00;99.90;;;;;;962685;146;27307;-82
2021/12/28 06:04:46;;;;;;;3.70;2.50;;;11.00;99.90;;;;;;960820;148;27319;-81
2021/12/28 06:07:12;;;;;;;7.77;2.67;;;11.00;99.90;;;;;;958648;146;27724;-81
2021/12/28 06:09:39;;;;;;;3.33;2.27;;;11.00;99.90;;;;;;962207;146;27284;-82
2021/12/28 06:12:06;;;;;;;7.07;2.50;;;11.00;99.90;;;;;;963446;145;27360;-81
2021/12/28 06:14:32;;;;;;;6.37;2.63;;;10.90;99.90;;;;;;960279;146;27260;-81
2021/12/28 06:16:59;;;;;;;5.57;2.20;;;10.90;99.90;;;;;;965953;146;27280;-81
2021/12/28 06:19:25;;;;;;;4.33;2.10;;;10.90;99.90;;;;;;965678;148;27335;-81
2021/12/28 06:21:52;;;;;;;5.37;2.20;;;10.80;99.90;;;;;;964473;149;28107;-81
2021/12/28 06:24:19;;;;;;;6.90;2.40;;;10.80;99.90;;;;;;962912;149;27373;-81
2021/12/28 06:26:45;;;;;;;3.53;2.20;;;10.80;99.90;;;;;;963276;149;27283;-81
2021/12/28 06:29:15;;;;;;;3.73;2.13;;;10.80;99.90;;;;;;969228;145;27350;-81
2021/12/28 06:31:44;;;;;;;4.27;2.10;;;10.80;99.90;;;;;;972996;146;27411;-81
2021/12/28 06:34:11;;;;;;;3.57;2.00;;;10.70;99.90;;;;;;966650;146;27443;-82
2021/12/28 06:36:37;;;;;;;3.23;2.33;;;10.70;99.90;;;;;;967884;148;27388;-82
2021/12/28 06:39:04;;;;;;;4.33;2.83;;;10.70;99.90;;;;;;973252;145;27274;-82
2021/12/28 06:41:30;;;;;;;6.17;2.37;;;10.70;99.90;;;;;;977943;145;27304;-82
2021/12/28 06:43:57;;;;;;;5.67;2.30;;;10.70;99.90;;;;;;969649;145;27279;-82
2021/12/28 06:46:24;;;;;;;4.33;2.50;;;10.70;99.90;;;;;;969232;148;27228;-82
2021/12/28 06:48:50;;;;;;;4.53;2.40;;;10.70;99.90;;;;;;970300;145;27284;-82
2021/12/28 06:51:17;;;;;;;4.73;2.33;;;10.60;99.90;;;;;;968957;146;27254;-81
2021/12/28 06:53:43;;;;;;;6.83;2.43;;;10.60;99.90;;;;;;970397;145;27859;-82
2021/12/28 06:56:10;;;;;;;4.07;2.57;;;10.60;99.90;;;;;;961066;145;27386;-82
2021/12/28 06:58:36;;;;;;;6.73;2.83;;;10.60;99.90;;;;;;967134;148;27264;-82
2021/12/28 07:01:03;;;;;;;5.77;3.10;;;10.60;99.90;;;;;;971489;145;27276;-82
2021/12/28 07:03:30;;;;;;;8.97;2.97;;;10.60;99.90;;;;;;973811;145;27337;-81
2021/12/28 07:05:56;;;;;;;5.17;3.00;;;10.60;99.90;;;;;;980547;145;27361;-82
2021/12/28 07:08:25;;;;;;;6.77;2.90;;;10.60;99.90;;;;;;970883;145;27290;-82
2021/12/28 07:10:52;;;;;;;5.40;2.63;;;10.60;99.90;;;;;;967859;148;27254;-82
2021/12/28 07:13:18;;;;;;;5.37;2.40;;;10.60;99.90;;;;;;966817;146;27604;-82
2021/12/28 07:15:45;;;;;;;6.40;2.47;;;10.50;99.90;;;;;;969340;148;27303;-82
2021/12/28 07:18:12;;;;;;;7.90;3.00;;;10.50;99.90;;;;;;968922;145;27269;-82
2021/12/28 07:20:38;;;;;;;3.77;2.50;;;10.50;99.90;;;;;;972179;145;27351;-82
2021/12/28 07:23:05;;;;;;;6.03;2.70;;;10.50;99.90;;;;;;976178;145;27427;-82
2021/12/28 07:25:34;;;;;;;8.50;2.60;;;10.50;99.90;;;;;;986735;145;27382;-82
2021/12/28 07:28:01;;;;;;;5.20;2.33;;;10.50;99.90;;;;;;984144;145;27287;-82
2021/12/28 07:30:27;;;;;;;5.60;2.67;;;10.50;99.90;;;;;;966530;148;27295;-82
2021/12/28 07:32:54;;;;;;;3.20;2.10;;;10.50;99.90;;;;;;977477;145;27369;-82
2021/12/28 07:35:21;;;;;;;7.07;2.30;;;10.50;99.90;;;;;;974050;146;27250;-82
2021/12/28 07:37:47;;;;;;;4.80;2.30;;;10.50;99.90;;;;;;974782;146;27372;-82
2021/12/28 07:40:14;;;;;;;5.27;2.60;;;10.50;99.90;;;;;;974190;146;27285;-82
2021/12/28 07:42:40;;;;;;;4.83;2.30;;;10.50;99.90;;;;;;968647;146;27319;-82
2021/12/28 07:45:09;;;;;;;3.37;2.30;;;10.50;99.90;;;;;;958605;149;27376;-82
2021/12/28 07:47:34;;;;;;;3.60;2.13;;;10.50;99.90;;;;;;965004;146;27293;-82
2021/12/28 07:50:00;;;;;;;7.43;2.53;;;10.50;99.90;;;;;;959975;149;27330;-82
2021/12/28 07:52:27;;;;;;;5.83;2.50;;;10.60;99.90;;;;;;962899;149;27282;-82
2021/12/28 07:54:53;;;;;;;3.87;2.40;;;10.60;99.90;;;;;;966112;146;27360;-82
2021/12/28 07:57:20;;;;;;;7.40;2.50;;;10.60;99.90;;;;;;941502;149;27442;-82
2021/12/28 07:59:46;;;;;;;3.33;1.90;;;10.60;99.90;;;;;;973079;146;27382;-82
2021/12/28 08:02:13;;;;;;;3.33;2.20;;;10.60;99.90;;;;;;965962;148;27295;-82
2021/12/28 08:04:40;;;;;;;5.77;2.20;;;10.60;99.90;;;;;;969267;146;27273;-82
2021/12/28 08:07:06;;;;;;;7.33;2.40;;;10.60;99.90;;;;;;966557;146;27280;-82
2021/12/28 08:09:33;;;;;;;3.73;2.33;;;10.60;99.90;;;;;;981241;146;27374;-82
2021/12/28 08:11:59;;;;;;;3.67;2.50;;;10.70;99.90;;;;;;969944;146;27251;-82
2021/12/28 08:14:26;;;;;;;4.30;2.30;;;10.70;99.90;;;;;;971739;146;27811;-82
2021/12/28 08:16:53;;;;;;;4.67;1.97;;;10.70;99.90;;;;;;967528;146;27439;-83
2021/12/28 08:19:19;;;;;;;6.27;2.13;;;10.70;99.90;;;;;;963781;146;27373;-82
2021/12/28 08:21:46;;;;;;;6.73;2.30;;;10.70;99.90;;;;;;978755;146;27252;-82
2021/12/28 08:24:12;;;;;;;4.10;2.20;;;10.80;99.90;;;;;;977312;146;27264;-82
2021/12/28 08:26:42;;;;;;;4.63;1.80;;;10.80;99.90;;;;;;958294;148;27379;-82
2021/12/28 08:29:08;;;;;;;4.40;2.03;;;10.80;99.90;;;;;;956209;149;27266;-82
2021/12/28 08:31:35;;;;;;;4.40;2.13;;;10.80;99.90;;;;;;958055;146;27347;-82
2021/12/28 08:34:02;;;;;;;3.33;1.70;;;10.80;99.90;;;;;;973127;145;27299;-82
2021/12/28 08:36:28;;;;;;;4.23;1.53;;;10.90;99.90;;;;;;974480;145;27287;-82
2021/12/28 08:38:55;;;;;;;2.50;1.67;;;10.90;99.90;;;;;;962184;149;27243;-82
2021/12/28 08:41:21;;;;;;;3.53;1.93;;;10.90;99.90;;;;;;957911;146;27280;-82
2021/12/28 08:43:48;;;;;;;2.77;1.60;;;10.90;99.90;;;;;;967250;148;27328;-81
2021/12/28 08:46:14;;;;;;;4.03;2.20;;;10.90;99.90;;;;;;963806;145;27295;-82
2021/12/28 08:48:41;;;;;;;3.53;1.80;;;10.90;99.90;;;;;;949921;148;27235;-82
2021/12/28 08:51:07;;;;;;;5.73;2.53;;;11.00;99.90;;;;;;964671;146;27281;-82
2021/12/28 08:53:34;;;;;;;4.43;1.90;;;11.00;99.90;;;;;;957992;143;27361;-82
2021/12/28 08:56:01;;;;;;;2.73;1.50;;;11.00;99.90;;;;;;977161;145;27280;-82
2021/12/28 08:58:27;;;;;;;3.77;1.87;;;11.00;99.90;;;;;;974324;145;27726;-82
2021/12/28 09:00:54;;;;;;;3.93;2.10;;;11.00;99.90;;;;;;963968;146;27355;-82
2021/12/28 09:03:23;;;;;;;1.97;1.30;;;11.00;99.90;;;;;;954632;148;27340;-82
2021/12/28 09:05:49;;;;;;;1.93;1.70;;;11.00;99.90;;;;;;967084;146;28106;-82
2021/12/28 09:08:18;;;;;;;1.90;1.47;;;11.00;99.90;;;;;;969790;146;27360;-82
2021/12/28 09:10:43;;;;;;;1.40;1.30;;;11.00;99.90;;;;;;956805;146;27397;-82
2021/12/28 09:13:11;;;;;;;1.80;1.33;;;11.00;99.90;;;;;;964832;148;27311;-82
2021/12/28 09:15:36;;;;;;;2.93;1.70;;;11.00;99.90;;;;;;962784;145;27284;-82
2021/12/28 09:18:02;;;;;;;2.70;2.17;;;11.10;99.90;;;;;;964262;146;27431;-82
2021/12/28 09:20:29;;;;;;;2.97;1.77;;;11.10;99.90;;;;;;963406;148;27331;-82
2021/12/28 09:22:56;;;;;;;3.03;1.40;;;11.10;99.90;;;;;;971558;145;27384;-82
2021/12/28 09:25:22;;;;;;;2.87;1.73;;;11.10;99.90;;;;;;961670;149;27291;-82
2021/12/28 09:27:49;;;;;;;3.63;1.73;;;11.10;99.90;;;;;;956087;149;27390;-82
2021/12/28 09:30:15;;;;;;;2.17;1.50;;;11.10;99.90;;;;;;960932;146;27287;-82
2021/12/28 09:32:42;;;;;;;1.90;1.70;;;11.20;99.90;;;;;;965392;148;27336;-82
2021/12/28 09:35:08;;;;;;;2.63;1.40;;;11.20;99.90;;;;;;985264;145;27728;-82
2021/12/28 09:37:35;;;;;;;2.37;1.50;;;11.20;99.90;;;;;;976179;145;27390;-82
2021/12/28 09:40:02;;;;;;;2.00;1.80;;;11.20;99.90;;;;;;954132;146;27357;-82
2021/12/28 09:42:28;;;;;;;3.43;2.07;;;11.20;99.90;;;;;;967938;146;27267;-82
2021/12/28 09:44:55;;;;;;;2.63;1.50;;;11.20;99.90;;;;;;968238;146;27376;-82
2021/12/28 09:47:21;;;;;;;3.00;1.77;;;11.20;99.90;;;;;;971262;145;27294;-82
2021/12/28 09:49:48;;;;;;;2.90;1.67;;;11.30;99.90;;;;;;973305;145;27276;-82
2021/12/28 09:52:15;;;;;;;2.60;2.00;;;11.30;99.90;;;;;;970997;146;27752;-82
2021/12/28 09:54:44;;;;;;;1.60;1.40;;;11.30;99.90;;;;;;962649;145;27310;-82
2021/12/28 09:57:10;;;;;;;1.93;1.50;;;11.40;99.90;;;;;;969193;145;27298;-82
2021/12/28 09:59:37;;;;;;;2.00;1.70;;;11.40;99.90;;;;;;962106;146;27303;-82
2021/12/28 10:02:09;;;;;;;3.73;1.43;;;11.50;99.90;;;;;;965292;145;27997;-82
2021/12/28 10:04:33;;;;;;;1.50;1.40;;;11.50;99.90;;;;;;958183;145;27780;-83
2021/12/28 10:07:12;;;;;;;2.70;1.70;;;11.50;99.90;;;;;;967365;146;27362;-83
2021/12/28 10:09:38;;;;;;;1.33;1.20;;;11.50;99.90;;;;;;956442;148;27446;-83
2021/12/28 10:12:05;;;;;;;2.17;1.30;;;11.60;99.90;;;;;;957247;148;27327;-83
2021/12/28 10:14:31;;;;;;;1.33;1.23;;;11.60;99.90;;;;;;960722;146;27318;-82
2021/12/28 10:16:58;;;;;;;4.57;1.60;;;11.60;99.90;;;;;;972471;145;27300;-82
2021/12/28 10:19:33;;;;;;;2.03;1.20;;;11.60;99.90;;;;;;975089;146;27292;-82
2021/12/28 10:22:00;;;;;;;2.13;1.20;;;11.70;99.90;;;;;;966081;148;27376;-82
2021/12/28 10:24:32;;;;;;;3.30;1.70;;;11.70;99.90;;;;;;966046;146;27413;-82
2021/12/28 10:27:08;;;;;;;1.83;1.60;;;11.70;99.90;;;;;;968125;145;27364;-83
2021/12/28 10:29:35;;;;;;;1.10;1.00;;;11.80;99.90;;;;;;978149;145;27288;-82
2021/12/28 10:32:26;;;;;;;1.67;1.43;;;11.80;99.90;;;;;;968808;146;27331;-81
2021/12/28 10:34:58;;;;;;;2.03;1.80;;;11.80;99.90;;;;;;962168;145;27407;-82
2021/12/28 10:37:25;;;;;;;2.57;2.03;;;11.90;99.90;;;;;;961221;146;27342;-82
2021/12/28 10:39:56;;;;;;;1.57;1.30;;;11.90;99.90;;;;;;961928;145;27287;-82
2021/12/28 10:42:38;;;;;;;1.10;1.10;;;11.90;99.90;;;;;;985241;146;27279;-83
2021/12/28 10:45:05;;;;;;;1.50;1.40;;;11.90;99.90;;;;;;959985;146;27404;-82
2021/12/28 10:47:32;;;;;;;2.10;1.57;;;12.00;99.90;;;;;;959449;149;27272;-83
2021/12/28 10:50:01;;;;;;;2.50;2.03;;;12.00;99.90;;;;;;950016;147;27264;-83
2021/12/28 10:52:27;;;;;;;2.43;2.03;;;12.00;99.90;;;;;;961330;149;27295;-82
2021/12/28 10:54:51;;;;;;;1.60;1.37;;;12.10;99.90;;;;;;967681;145;27394;-82
2021/12/28 10:57:18;;;;;;;1.87;1.50;;;12.10;99.90;;;;;;965422;148;27283;-82
2021/12/28 10:59:45;;;;;;;1.53;1.30;;;12.20;99.90;;;;;;971292;146;27299;-82
2021/12/28 11:02:11;;;;;;;2.20;1.57;;;12.20;99.90;;;;;;945407;149;27328;-83
2021/12/28 11:04:38;;;;;;;1.10;1.00;;;12.30;99.90;;;;;;967405;146;27295;-83
2021/12/28 11:07:04;;;;;;;1.20;1.10;;;12.30;99.90;;;;;;970050;145;27214;-82
2021/12/28 11:09:31;;;;;;;1.60;1.13;;;12.30;99.90;;;;;;969585;146;27280;-83
2021/12/28 11:11:58;;;;;;;1.40;1.20;;;12.40;99.90;;;;;;969299;146;27284;-83
2021/12/28 11:14:33;;;;;;;0.83;0.83;;;12.50;99.90;;;;;;973887;143;27259;-83
2021/12/28 11:17:03;;;;;;;1.43;1.10;;;12.50;99.90;;;;;;982537;146;27300;-83
2021/12/28 11:19:30;;;;;;;1.30;1.10;;;12.60;99.90;;;;;;966718;146;27387;-82
2021/12/28 11:21:56;;;;;;;1.57;1.43;;;12.70;99.90;;;;;;961021;146;27331;-82
2021/12/28 11:24:23;;;;;;;1.77;1.20;;;12.70;99.90;;;;;;963247;148;27272;-83
2021/12/28 11:26:49;;;;;;;0.90;0.90;;;12.80;99.90;;;;;;975122;146;27330;-83
2021/12/28 11:29:20;;;;;;;1.40;1.30;;;12.90;99.90;;;;;;964286;148;27298;-83
2021/12/28 11:31:46;;;;;;;2.83;1.50;;;13.00;99.90;;;;;;962899;145;27816;-83
2021/12/28 11:34:31;;;;;;;2.90;1.60;;;13.10;99.90;;;;;;962722;148;27284;-82
2021/12/28 11:37:03;;;;;;;2.03;1.60;;;13.10;99.90;;;;;;974115;145;27426;-83
2021/12/28 11:39:35;;;;;;;4.63;3.10;;;13.30;99.90;;;;;;959955;147;27307;-83
2021/12/28 11:42:02;;;;;;;2.80;2.00;;;13.40;99.90;;;;;;943368;149;27429;-83
2021/12/28 11:44:29;;;;;;;2.00;1.80;;;13.40;99.90;;;;;;957328;147;27423;-83
2021/12/28 11:46:55;;;;;;;2.13;1.83;;;13.60;99.90;;;;;;959391;147;27383;-83
2021/12/28 11:49:25;;;;;;;4.80;1.35;;;13.70;99.90;;;;;;953832;147;27405;-83
2021/12/28 11:51:48;;;;;;;4.42;2.85;;;13.80;99.90;;;;;;952960;149;27239;-83
2021/12/28 11:54:15;;;;;;;2.83;2.23;;;13.90;99.90;;;;;;945588;149;27263;-83
2021/12/28 11:56:41;;;;;;;3.22;2.92;;;14.00;99.90;;;;;;949428;149;27307;-83
2021/12/28 11:59:17;;;;;;;2.20;1.85;;;14.10;99.90;;;;;;965304;147;27215;-83
2021/12/28 12:01:53;;;;;;;1.97;1.50;;;14.10;99.90;;;;;;965576;147;27330;-83
2021/12/28 12:04:31;;;;;;;1.90;1.73;;;14.10;99.90;;;;;;952001;147;27813;-83
2021/12/28 12:07:12;;;;;;;2.47;2.22;;;14.20;99.90;;;;;;940570;149;27426;-84
2021/12/28 12:09:55;;;;;;;2.00;1.50;;;14.20;99.90;;;;;;952919;147;27361;-82
2021/12/28 12:12:29;;;;;;;2.10;2.00;;;14.20;99.90;;;;;;969439;147;27377;-82
2021/12/28 12:15:00;;;;;;;1.90;1.80;;;14.20;99.90;;;;;;958534;147;27372;-82
2021/12/28 12:17:28;;;;;;;1.85;1.75;;;14.20;99.90;;;;;;974441;147;27378;-82
2021/12/28 12:20:00;;;;;;;1.30;1.30;;;14.20;99.90;;;;;;960913;147;27797;-82
2021/12/28 12:22:33;;;;;;;1.50;1.40;;;14.20;99.90;;;;;;946448;149;27287;-82
2021/12/28 12:24:59;;;;;;;1.40;1.40;;;14.20;99.90;;;;;;947549;149;27291;-82
2021/12/28 12:27:47;;;;;;;1.10;1.00;;;14.30;99.90;;;;;;958531;148;27420;-82
2021/12/28 12:30:24;;;;;;;1.60;1.50;;;14.30;99.90;;;;;;960689;147;27307;-82
2021/12/28 12:33:01;;;;;;;0.93;0.93;;;14.30;99.90;;;;;;965042;147;27312;-83
2021/12/28 12:35:43;;;;;;;1.15;1.15;;;14.40;99.90;;;;;;958213;149;27369;-82
2021/12/28 12:38:13;;;;;;;1.70;1.00;;;14.40;99.90;;;;;;951486;149;27345;-82
2021/12/28 12:40:54;;;;;;;0.80;0.80;;;14.40;99.90;;;;;;975714;146;27398;-82
2021/12/28 12:43:23;;;;;;;0.90;0.90;;;14.40;99.90;;;;;;965398;146;27338;-82
2021/12/28 12:45:57;;;;;;;0.80;0.80;;;14.40;99.90;;;;;;960079;148;27370;-82
2021/12/28 12:48:32;;;;;;;1.77;1.00;;;14.40;99.90;;;;;;974211;146;27391;-82
2021/12/28 12:51:22;;;;;;;1.00;0.90;;;14.30;99.90;;;;;;957166;146;27357;-82
2021/12/28 12:54:01;;;;;;;1.63;0.90;;;14.30;99.90;;;;;;961160;146;27433;-82